Time;durP1;ratioP1;P1;durP2;ratioP2;P2;SDS_P1;SDS_P2;PMS_P1;PMS_P2;Temp;Humidity;BMP_temperature;BMP_pressure;BME280_temperature;BME280_humidity;BME280_pressure;Samples;Min_cycle;Max_cycle;Signal;HPM_P1;HPM_P2
2021/12/11 07:01:43;;;;;;;37.72;4.30;;;9.00;99.90;;;;;;5381004;23;20042;-79
2021/12/11 07:04:11;;;;;;;32.17;4.07;;;8.90;99.90;;;;;;4960218;28;20047;-80
2021/12/11 07:06:43;;;;;;;39.05;4.63;;;8.90;99.90;;;;;;4960583;28;20184;-81
2021/12/11 07:09:13;;;;;;;35.13;3.50;;;8.90;99.90;;;;;;4962210;28;20047;-81
2021/12/11 07:11:42;;;;;;;43.42;4.50;;;8.90;99.90;;;;;;4971335;28;20078;-82
2021/12/11 07:14:11;;;;;;;31.85;4.68;;;8.90;99.90;;;;;;4955426;28;20047;-81
2021/12/11 07:16:38;;;;;;;45.15;4.32;;;8.90;99.90;;;;;;4957726;28;20074;-81
2021/12/11 07:19:08;;;;;;;37.22;6.00;;;8.90;99.90;;;;;;4959191;28;20078;-82
2021/12/11 07:21:36;;;;;;;31.00;4.50;;;9.00;99.90;;;;;;4959689;28;20105;-81
2021/12/11 07:24:06;;;;;;;37.17;5.03;;;9.00;99.90;;;;;;4960033;28;20054;-81
2021/12/11 07:26:34;;;;;;;37.22;4.35;;;9.00;99.90;;;;;;4952957;28;20043;-82
2021/12/11 07:29:19;;;;;;;41.30;5.80;;;8.90;99.90;;;;;;4966324;28;20711;-81
2021/12/11 07:32:11;;;;;;;39.72;5.88;;;9.00;99.90;;;;;;4963574;28;20058;-80
2021/12/11 07:35:02;;;;;;;42.80;6.32;;;9.00;99.90;;;;;;4961219;28;20117;-81
2021/12/11 07:37:29;;;;;;;46.22;7.13;;;9.00;99.90;;;;;;4961754;28;20093;-81
2021/12/11 07:39:56;;;;;;;42.58;8.20;;;9.00;99.90;;;;;;4964886;28;20050;-81
2021/12/11 07:42:27;;;;;;;50.20;11.30;;;9.00;99.90;;;;;;4964459;28;20486;-81
2021/12/11 07:44:53;;;;;;;49.42;9.52;;;9.00;99.90;;;;;;4964445;28;20507;-81
2021/12/11 07:47:20;;;;;;;52.78;10.05;;;9.00;99.90;;;;;;4950265;28;20773;-81
2021/12/11 07:49:47;;;;;;;71.05;9.70;;;9.00;99.90;;;;;;4965889;28;20610;-81
2021/12/11 07:52:14;;;;;;;61.35;8.65;;;9.00;99.90;;;;;;4963754;28;20051;-81
2021/12/11 07:54:42;;;;;;;41.50;6.53;;;9.00;99.90;;;;;;4959288;28;20085;-81
2021/12/11 07:57:09;;;;;;;60.30;6.55;;;9.00;99.90;;;;;;4955797;28;20054;-81
2021/12/11 07:59:35;;;;;;;51.78;7.28;;;9.00;99.90;;;;;;4964534;28;20070;-81
2021/12/11 08:02:03;;;;;;;56.78;7.72;;;9.00;99.90;;;;;;4963615;28;20515;-81
2021/12/11 08:04:30;;;;;;;68.72;7.20;;;9.00;99.90;;;;;;4963814;28;20065;-80
2021/12/11 08:06:57;;;;;;;97.35;7.65;;;9.00;99.90;;;;;;4962974;28;20098;-80
2021/12/11 08:09:24;;;;;;;83.18;8.95;;;9.00;99.90;;;;;;4958404;28;20047;-80
2021/12/11 08:11:51;;;;;;;147.18;13.65;;;9.00;99.90;;;;;;4963303;28;20054;-80
2021/12/11 08:14:20;;;;;;;142.95;12.85;;;9.00;99.90;;;;;;4964700;28;20133;-81
2021/12/11 08:16:49;;;;;;;142.13;12.55;;;9.10;99.90;;;;;;4965994;28;20050;-80
2021/12/11 08:19:19;;;;;;;119.55;11.77;;;9.10;99.90;;;;;;4964724;28;20043;-80
2021/12/11 08:21:49;;;;;;;151.63;11.70;;;9.10;99.90;;;;;;4959219;28;20058;-80
2021/12/11 08:24:17;;;;;;;113.35;9.32;;;9.10;99.90;;;;;;4956829;28;20610;-80
2021/12/11 08:26:45;;;;;;;125.10;7.68;;;9.10;99.90;;;;;;4965062;28;20512;-81
2021/12/11 08:29:14;;;;;;;115.00;10.15;;;9.10;99.90;;;;;;4963391;28;20085;-81
2021/12/11 08:31:44;;;;;;;106.22;10.25;;;9.20;99.90;;;;;;4965158;28;20100;-80
2021/12/11 08:34:12;;;;;;;152.95;12.70;;;9.20;99.90;;;;;;4952891;28;20700;-80
2021/12/11 08:36:41;;;;;;;130.18;12.77;;;9.20;99.90;;;;;;4964914;28;20097;-81
2021/12/11 08:39:12;;;;;;;102.20;12.93;;;9.20;99.90;;;;;;4964371;28;20050;-81
2021/12/11 08:41:40;;;;;;;130.02;14.00;;;9.20;99.90;;;;;;4962955;28;20122;-80
2021/12/11 08:44:12;;;;;;;82.07;10.52;;;9.30;99.90;;;;;;4956203;28;20117;-81
2021/12/11 08:46:46;;;;;;;175.00;11.02;;;9.30;99.90;;;;;;4969364;28;20042;-81
2021/12/11 08:49:21;;;;;;;152.32;9.10;;;9.30;99.90;;;;;;4968346;28;20134;-80
2021/12/11 08:52:08;;;;;;;118.63;9.60;;;9.30;99.90;;;;;;4968898;28;20506;-81
2021/12/11 08:54:35;;;;;;;117.53;10.18;;;9.30;99.90;;;;;;4964179;28;20077;-80
2021/12/11 08:57:08;;;;;;;102.43;10.13;;;9.30;99.90;;;;;;4969077;28;20085;-81
2021/12/11 08:59:41;;;;;;;130.60;10.27;;;9.40;99.90;;;;;;4968658;28;20055;-80
2021/12/11 09:02:21;;;;;;;112.50;10.82;;;9.40;99.90;;;;;;4968008;28;20046;-80
2021/12/11 09:04:55;;;;;;;116.45;13.18;;;9.40;99.90;;;;;;4959661;28;20051;-81
2021/12/11 09:07:44;;;;;;;105.55;11.77;;;9.40;99.90;;;;;;4967710;28;20054;-80
2021/12/11 09:10:23;;;;;;;128.52;10.80;;;9.50;99.90;;;;;;4946671;28;20058;-80
2021/12/11 09:13:01;;;;;;;72.53;10.63;;;9.50;99.90;;;;;;4968347;28;20529;-80
2021/12/11 09:15:52;;;;;;;99.35;10.63;;;9.50;99.90;;;;;;4967642;28;20136;-81
2021/12/11 09:18:27;;;;;;;56.33;10.43;;;9.60;99.90;;;;;;4963184;28;20047;-80
2021/12/11 09:21:04;;;;;;;100.53;10.82;;;9.60;99.90;;;;;;4967958;28;20510;-80
2021/12/11 09:23:54;;;;;;;75.30;11.65;;;9.60;99.90;;;;;;4963716;28;20043;-81
2021/12/11 09:26:30;;;;;;;54.97;11.52;;;9.70;99.90;;;;;;4953016;28;20503;-81
2021/12/11 09:29:11;;;;;;;77.68;12.75;;;9.70;99.90;;;;;;4968700;28;20097;-80
2021/12/11 09:32:16;;;;;;;65.18;11.82;;;9.70;99.90;;;;;;4968539;28;20500;-79
2021/12/11 09:34:59;;;;;;;80.18;10.85;;;9.70;99.90;;;;;;4961026;28;20471;-81
2021/12/11 09:37:28;;;;;;;56.83;12.00;;;9.70;99.90;;;;;;4966500;28;20062;-80
2021/12/11 09:40:03;;;;;;;59.50;12.35;;;9.80;99.90;;;;;;4967992;28;20106;-81
2021/12/11 09:42:29;;;;;;;57.00;14.07;;;9.80;99.90;;;;;;4962850;28;20102;-81
2021/12/11 09:45:13;;;;;;;84.35;20.05;;;9.80;99.90;;;;;;4956156;28;20094;-81
2021/12/11 09:47:50;;;;;;;92.70;23.30;;;9.90;99.90;;;;;;4967079;28;20075;-81
2021/12/11 09:50:44;;;;;;;61.63;18.13;;;9.90;99.90;;;;;;4952064;28;20138;-81
2021/12/11 09:53:14;;;;;;;60.92;13.35;;;10.00;99.90;;;;;;4965228;28;20121;-80
2021/12/11 09:55:41;;;;;;;60.03;13.02;;;10.00;99.90;;;;;;4968481;28;20070;-81
2021/12/11 09:58:19;;;;;;;51.70;10.45;;;10.00;99.90;;;;;;4966420;28;20370;-81
2021/12/11 10:01:27;;;;;;;36.90;9.23;;;10.00;99.90;;;;;;4967092;28;20059;-81
2021/12/11 10:04:00;;;;;;;41.92;9.57;;;10.10;99.90;;;;;;4965540;28;20055;-81
2021/12/11 10:09:18;;;;;;;33.15;9.23;;;10.20;99.90;;;;;;4964617;28;20050;-81
2021/12/11 10:11:49;;;;;;;24.60;8.60;;;10.20;99.90;;;;;;4955906;28;20090;-81
2021/12/11 10:14:20;;;;;;;19.77;7.78;;;10.30;99.90;;;;;;4966056;28;20101;-83
2021/12/11 10:16:51;;;;;;;31.60;8.40;;;10.30;99.90;;;;;;4964305;28;20049;-82
2021/12/11 10:19:20;;;;;;;23.05;8.27;;;10.30;99.90;;;;;;4956862;28;20810;-83
2021/12/11 10:22:08;;;;;;;23.83;7.57;;;10.30;99.90;;;;;;4958620;28;20495;-82
2021/12/11 10:24:36;;;;;;;18.77;7.53;;;10.40;99.90;;;;;;4949663;28;20541;-82
2021/12/11 10:27:05;;;;;;;28.25;7.80;;;10.40;99.90;;;;;;4966816;28;20071;-83
2021/12/11 10:29:33;;;;;;;27.60;8.52;;;10.50;99.90;;;;;;4959844;28;20657;-80
2021/12/11 10:32:06;;;;;;;17.55;6.85;;;10.50;99.90;;;;;;4955898;28;20106;-82
2021/12/11 10:34:34;;;;;;;19.05;7.45;;;10.60;99.90;;;;;;4980543;28;20054;-81
2021/12/11 10:37:09;;;;;;;14.18;6.43;;;10.60;99.90;;;;;;4964838;28;20424;-81
2021/12/11 10:39:40;;;;;;;15.32;6.38;;;10.60;99.90;;;;;;4965803;28;20415;-82
2021/12/11 10:42:08;;;;;;;20.42;6.90;;;10.60;99.90;;;;;;4936097;28;20051;-81
2021/12/11 10:44:40;;;;;;;15.70;6.15;;;10.70;99.90;;;;;;4947442;28;20044;-82
2021/12/11 10:47:07;;;;;;;15.50;6.57;;;10.70;99.90;;;;;;4949861;28;20483;-81
2021/12/11 10:49:36;;;;;;;16.95;6.93;;;10.80;99.90;;;;;;4961550;28;20070;-81
2021/12/11 10:52:13;;;;;;;13.73;9.18;;;10.80;99.90;;;;;;4961520;28;20142;-82
2021/12/11 10:54:40;;;;;;;18.73;10.05;;;10.90;99.90;;;;;;4961777;28;20054;-80
2021/12/11 10:57:08;;;;;;;16.00;9.50;;;10.90;99.90;;;;;;4952532;28;20117;-82
2021/12/11 10:59:40;;;;;;;15.82;10.02;;;10.90;99.90;;;;;;4952567;28;20058;-80
2021/12/11 11:02:11;;;;;;;18.90;11.57;;;11.00;99.90;;;;;;4963560;28;20051;-82
2021/12/11 11:04:57;;;;;;;17.52;12.93;;;11.00;99.90;;;;;;4952781;28;20050;-82
2021/12/11 11:07:26;;;;;;;16.13;11.75;;;11.00;99.90;;;;;;4965560;28;20159;-82
2021/12/11 11:09:58;;;;;;;14.45;9.27;;;11.10;99.90;;;;;;4955770;28;20043;-81
2021/12/11 11:12:27;;;;;;;7.10;3.95;;;11.10;99.90;;;;;;4952533;28;20051;-82
2021/12/11 11:14:55;;;;;;;5.07;2.90;;;11.20;99.90;;;;;;4966647;28;20047;-83
2021/12/11 11:17:29;;;;;;;11.75;5.72;;;11.20;99.90;;;;;;4965236;28;20050;-82
2021/12/11 11:19:57;;;;;;;7.57;4.93;;;11.30;99.90;;;;;;4952542;28;20671;-81
2021/12/11 11:22:28;;;;;;;6.00;2.70;;;11.30;99.90;;;;;;4966207;28;20069;-84
2021/12/11 11:25:18;;;;;;;4.68;2.13;;;11.30;99.90;;;;;;4964479;28;20059;-81
2021/12/11 11:27:46;;;;;;;6.07;4.90;;;11.40;99.90;;;;;;4966189;28;20432;-82
2021/12/11 11:30:20;;;;;;;2.30;2.10;;;11.40;99.90;;;;;;4959797;28;20049;-83
2021/12/11 11:32:48;;;;;;;6.22;1.50;;;11.40;99.90;;;;;;4963004;28;20491;-82
2021/12/11 11:35:19;;;;;;;7.30;2.80;;;11.40;99.90;;;;;;4959441;28;20427;-82
2021/12/11 11:37:50;;;;;;;4.82;3.65;;;11.50;99.90;;;;;;4939217;28;21007;-81
2021/12/11 11:40:28;;;;;;;3.58;1.80;;;11.50;99.90;;;;;;4959049;28;20049;-83
2021/12/11 11:42:57;;;;;;;3.50;2.20;;;11.50;99.90;;;;;;4963351;28;20050;-82
2021/12/11 11:45:25;;;;;;;;;;;11.60;99.90;;;;;;4961622;28;20487;-81
2021/12/11 11:47:54;;;;;;;3.72;2.08;;;11.60;99.90;;;;;;4963653;28;19926;-82
2021/12/11 11:50:22;;;;;;;;;;;11.60;99.90;;;;;;4953908;28;20329;-80
2021/12/11 11:52:50;;;;;;;2.55;2.00;;;11.70;99.90;;;;;;4936611;28;20318;-82
2021/12/11 11:55:23;;;;;;;3.60;2.70;;;11.60;99.90;;;;;;4948950;28;20552;-82
2021/12/11 11:57:52;;;;;;;3.67;3.35;;;11.70;99.90;;;;;;4964456;28;20415;-82
2021/12/11 12:00:27;;;;;;;3.22;2.42;;;11.70;99.90;;;;;;4959187;28;20051;-84
2021/12/11 12:02:56;;;;;;;3.67;3.08;;;11.80;99.90;;;;;;4965368;28;20050;-81
2021/12/11 12:05:24;;;;;;;;;;;11.80;99.90;;;;;;4943738;28;20144;-82
2021/12/11 12:07:51;;;;;;;2.77;2.03;;;11.80;99.90;;;;;;4951960;28;19926;-80
2021/12/11 12:10:23;;;;;;;2.30;1.00;;;11.80;99.90;;;;;;4962363;28;20286;-80
2021/12/11 12:12:50;;;;;;;11.50;7.03;;;11.90;99.90;;;;;;4952897;28;20047;-81
2021/12/11 12:15:32;;;;;;;9.65;7.13;;;11.90;99.90;;;;;;4960109;28;20736;-82
2021/12/11 12:17:59;;;;;;;3.50;2.60;;;11.90;99.90;;;;;;4963805;28;20047;-79
2021/12/11 12:20:27;;;;;;;4.53;3.90;;;12.00;99.90;;;;;;4952154;28;20076;-81
2021/12/11 12:22:56;;;;;;;2.42;2.08;;;11.90;99.90;;;;;;4962095;28;20054;-84
2021/12/11 12:25:28;;;;;;;3.03;2.30;;;12.00;99.90;;;;;;4964439;28;20058;-82
2021/12/11 12:27:55;;;;;;;2.80;2.60;;;12.00;99.90;;;;;;4963289;28;20061;-82
2021/12/11 12:30:38;;;;;;;6.57;3.67;;;12.00;99.90;;;;;;4961088;28;20055;-81
2021/12/11 12:33:08;;;;;;;5.75;4.45;;;12.00;99.90;;;;;;4960733;28;20137;-80
2021/12/11 12:35:37;;;;;;;14.27;8.32;;;12.10;99.90;;;;;;4961130;28;20078;-82
2021/12/11 12:38:08;;;;;;;6.60;5.97;;;12.10;99.90;;;;;;4935315;28;20047;-81
2021/12/11 12:40:48;;;;;;;8.90;8.00;;;12.10;99.90;;;;;;4961856;28;20047;-81
2021/12/11 12:46:40;;;;;;;12.35;10.13;;;12.20;99.90;;;;;;4948713;28;20413;-84
2021/12/11 12:49:12;;;;;;;11.55;8.50;;;12.20;99.90;;;;;;4955486;28;20050;-81
2021/12/11 12:51:39;;;;;;;17.15;10.68;;;12.20;99.90;;;;;;4958602;28;20423;-81
2021/12/11 12:54:10;;;;;;;12.80;7.68;;;12.30;99.90;;;;;;4954541;28;20055;-82
2021/12/11 12:57:12;;;;;;;17.05;8.80;;;12.30;99.90;;;;;;4958086;28;20054;-82
2021/12/11 12:59:50;;;;;;;15.90;11.25;;;12.30;99.90;;;;;;4950216;28;20043;-79
2021/12/11 13:02:20;;;;;;;20.40;16.13;;;12.30;99.90;;;;;;4956274;28;20078;-80
2021/12/11 13:04:55;;;;;;;14.05;10.50;;;12.30;99.90;;;;;;4959644;28;20051;-80
2021/12/11 13:07:44;;;;;;;17.02;9.82;;;12.30;99.90;;;;;;4952738;28;20047;-79
2021/12/11 13:10:17;;;;;;;19.27;13.73;;;12.40;99.90;;;;;;4954602;28;20047;-79
2021/12/11 13:12:47;;;;;;;12.05;9.32;;;12.40;99.90;;;;;;4958961;28;20054;-79
2021/12/11 13:15:55;;;;;;;26.25;23.38;;;12.40;99.90;;;;;;4955539;28;20068;-83
2021/12/11 13:18:27;;;;;;;20.42;12.23;;;12.50;99.90;;;;;;4959444;28;20173;-80
2021/12/11 13:21:02;;;;;;;14.32;5.90;;;12.50;99.90;;;;;;4958364;28;20055;-82
2021/12/11 13:23:35;;;;;;;35.38;21.98;;;12.50;99.90;;;;;;4962348;28;20506;-83
2021/12/11 13:26:05;;;;;;;21.25;13.90;;;12.50;99.90;;;;;;4961380;28;20435;-82
2021/12/11 13:28:41;;;;;;;31.30;16.95;;;12.60;99.90;;;;;;4960619;28;20504;-83
2021/12/11 13:31:15;;;;;;;26.65;5.50;;;12.70;99.90;;;;;;4959867;28;20910;-82
2021/12/11 13:33:43;;;;;;;28.80;7.60;;;12.70;99.90;;;;;;4958891;28;20519;-82
2021/12/11 13:36:13;;;;;;;25.88;7.95;;;12.80;99.90;;;;;;4955823;28;20057;-82
2021/12/11 13:38:41;;;;;;;45.63;20.70;;;12.90;99.90;;;;;;4959754;28;20428;-84
2021/12/11 13:41:17;;;;;;;25.45;8.20;;;12.90;99.90;;;;;;4956517;28;20051;-83
2021/12/11 13:44:06;;;;;;;33.55;8.02;;;13.00;99.90;;;;;;4959918;28;20047;-84
2021/12/11 13:46:33;;;;;;;30.10;14.57;;;13.00;99.90;;;;;;4964499;28;20054;-82
2021/12/11 13:49:02;;;;;;;27.58;11.52;;;13.00;99.90;;;;;;4963036;28;20134;-83
2021/12/11 13:51:35;;;;;;;47.00;21.13;;;13.10;99.90;;;;;;4959258;28;20299;-84
2021/12/11 13:54:02;;;;;;;32.88;12.13;;;13.10;99.90;;;;;;4960366;28;20511;-84
2021/12/11 13:56:33;;;;;;;41.75;11.27;;;13.10;99.90;;;;;;4957889;28;20498;-83
2021/12/11 13:59:01;;;;;;;30.30;11.07;;;13.10;99.90;;;;;;4963412;28;20804;-83
2021/12/11 14:01:31;;;;;;;36.90;12.80;;;13.10;99.90;;;;;;4961568;28;20054;-82
2021/12/11 14:04:01;;;;;;;25.95;7.75;;;13.20;99.90;;;;;;4962111;28;20220;-83
2021/12/11 14:06:31;;;;;;;28.58;6.07;;;13.20;99.90;;;;;;4961749;28;20047;-81
2021/12/11 14:09:06;;;;;;;38.58;13.90;;;13.10;99.90;;;;;;4955605;28;20050;-82
2021/12/11 14:11:58;;;;;;;34.30;10.52;;;13.10;99.90;;;;;;4958971;28;20046;-83
2021/12/11 14:14:25;;;;;;;30.48;10.40;;;13.20;99.90;;;;;;4958213;28;20058;-81
2021/12/11 14:16:52;;;;;;;33.67;7.03;;;13.10;99.90;;;;;;4960429;28;20471;-82
2021/12/11 14:19:19;;;;;;;36.85;7.88;;;13.10;99.90;;;;;;4965607;28;20520;-80
2021/12/11 14:21:47;;;;;;;38.33;10.35;;;13.10;99.90;;;;;;4971025;28;20109;-81
2021/12/11 14:24:16;;;;;;;30.25;8.20;;;13.10;99.90;;;;;;4969259;28;20129;-80
2021/12/11 14:26:45;;;;;;;39.45;7.25;;;13.10;99.90;;;;;;4969346;28;21858;-80
2021/12/11 14:29:12;;;;;;;27.10;5.60;;;13.10;99.90;;;;;;4962367;28;20098;-81
2021/12/11 14:31:42;;;;;;;16.77;3.78;;;13.00;99.90;;;;;;4962820;28;20055;-80
2021/12/11 14:34:10;;;;;;;16.10;3.63;;;13.00;99.90;;;;;;4962338;28;20456;-82
2021/12/11 14:36:38;;;;;;;18.33;4.30;;;13.00;99.90;;;;;;4958036;28;20125;-82
2021/12/11 14:39:10;;;;;;;25.15;12.57;;;13.00;99.90;;;;;;4959426;28;20054;-80
2021/12/11 14:41:47;;;;;;;31.30;13.63;;;12.90;99.90;;;;;;4956847;28;20035;-82
2021/12/11 14:44:21;;;;;;;23.42;8.77;;;12.90;99.90;;;;;;4962652;28;20047;-82
2021/12/11 14:46:55;;;;;;;26.33;15.13;;;12.90;99.90;;;;;;4956757;28;20055;-81
2021/12/11 14:49:25;;;;;;;17.63;6.28;;;12.90;99.90;;;;;;4960186;28;20051;-83
2021/12/11 14:51:56;;;;;;;17.52;5.65;;;12.90;99.90;;;;;;4960937;28;20062;-83
2021/12/11 14:54:25;;;;;;;39.65;17.63;;;12.90;99.90;;;;;;4954281;28;20038;-82
2021/12/11 14:56:55;;;;;;;;;;;12.90;99.90;;;;;;4959595;28;20106;-82
2021/12/11 14:59:27;;;;;;;28.92;13.07;;;12.90;99.90;;;;;;4961012;28;19929;-82
2021/12/11 15:02:18;;;;;;;32.15;11.10;;;12.90;99.90;;;;;;4961469;28;20046;-82
2021/12/11 15:04:49;;;;;;;27.77;8.27;;;12.90;99.90;;;;;;4967324;28;20489;-83
2021/12/11 15:07:20;;;;;;;40.85;20.65;;;12.90;99.90;;;;;;4954728;28;20094;-83
2021/12/11 15:09:48;;;;;;;38.65;11.70;;;12.90;99.90;;;;;;4959827;28;20110;-82
2021/12/11 15:12:16;;;;;;;38.22;10.93;;;12.90;99.90;;;;;;4961865;28;20047;-82
2021/12/11 15:14:44;;;;;;;41.03;14.32;;;12.90;99.90;;;;;;4956936;28;20086;-82
2021/12/11 15:17:19;;;;;;;37.60;10.43;;;12.80;99.90;;;;;;4960282;28;20051;-83
2021/12/11 15:19:53;;;;;;;45.70;10.18;;;12.80;99.90;;;;;;4960464;28;20046;-82
2021/12/11 15:22:24;;;;;;;47.88;12.95;;;12.80;99.90;;;;;;4953974;28;20098;-82
2021/12/11 15:24:53;;;;;;;48.38;9.88;;;12.80;99.90;;;;;;4959332;28;20393;-82
2021/12/11 15:27:25;;;;;;;61.72;13.65;;;12.80;99.90;;;;;;4952185;28;20066;-82
2021/12/11 15:29:57;;;;;;;60.50;15.30;;;12.80;99.90;;;;;;4969625;28;20059;-83
2021/12/11 15:32:25;;;;;;;73.22;12.00;;;12.80;99.90;;;;;;4954152;28;20058;-83
2021/12/11 15:34:56;;;;;;;66.57;10.95;;;12.80;99.90;;;;;;4954787;28;20051;-81
2021/12/11 15:37:24;;;;;;;62.58;11.02;;;12.80;99.90;;;;;;4943289;28;20046;-82
2021/12/11 15:39:53;;;;;;;69.25;11.50;;;12.80;99.90;;;;;;4961696;28;20058;-82
2021/12/11 15:42:22;;;;;;;87.53;11.82;;;12.80;99.90;;;;;;4948458;28;20040;-81
2021/12/11 15:44:56;;;;;;;86.20;15.13;;;12.80;99.90;;;;;;4964321;28;20609;-82
2021/12/11 15:47:26;;;;;;;88.93;17.73;;;12.80;99.90;;;;;;4955875;28;20495;-83
2021/12/11 15:49:53;;;;;;;65.57;10.60;;;12.80;99.90;;;;;;4956988;28;20059;-83
2021/12/11 15:52:25;;;;;;;46.00;9.57;;;12.80;99.90;;;;;;4960749;28;20050;-82
2021/12/11 15:54:53;;;;;;;42.65;9.05;;;12.70;99.90;;;;;;4958666;28;20050;-83
2021/12/11 15:57:21;;;;;;;34.55;5.85;;;12.70;99.90;;;;;;4957063;28;20511;-83
2021/12/11 15:59:49;;;;;;;28.23;5.60;;;12.70;99.90;;;;;;4957696;28;20047;-83
2021/12/11 16:02:21;;;;;;;25.48;5.90;;;12.70;99.90;;;;;;4960072;28;20047;-83
2021/12/11 16:04:48;;;;;;;28.98;6.32;;;12.70;99.90;;;;;;4960492;28;20054;-83
2021/12/11 16:07:17;;;;;;;30.60;6.43;;;12.70;99.90;;;;;;4953361;28;20507;-83
2021/12/11 16:09:45;;;;;;;41.85;7.05;;;12.70;99.90;;;;;;4956954;28;20049;-84
2021/12/11 16:12:22;;;;;;;35.88;12.73;;;12.70;99.90;;;;;;4945426;28;20047;-85
2021/12/11 16:15:03;;;;;;;29.80;7.40;;;12.70;99.90;;;;;;4954419;28;20051;-82
2021/12/11 16:17:30;;;;;;;46.70;20.30;;;12.70;99.90;;;;;;4960341;28;20054;-82
2021/12/11 16:20:01;;;;;;;113.10;53.40;;;12.70;99.90;;;;;;4957860;28;20051;-81
2021/12/11 16:22:32;;;;;;;35.58;14.02;;;12.70;99.90;;;;;;4961222;28;20054;-82
2021/12/11 16:25:08;;;;;;;70.05;46.97;;;12.70;99.90;;;;;;4961707;28;20454;-82
2021/12/11 16:27:35;;;;;;;29.48;12.38;;;12.70;99.90;;;;;;4956537;28;20050;-82
2021/12/11 16:30:08;;;;;;;26.88;5.75;;;12.70;99.90;;;;;;4956985;28;20563;-82
2021/12/11 16:32:35;;;;;;;22.17;7.13;;;12.70;99.90;;;;;;4956499;28;20503;-82
2021/12/11 16:35:05;;;;;;;32.92;7.22;;;12.70;99.90;;;;;;4958961;28;20681;-82
2021/12/11 16:37:38;;;;;;;31.50;10.77;;;12.70;99.90;;;;;;4959320;28;20137;-82
2021/12/11 16:40:12;;;;;;;21.98;5.38;;;12.70;99.90;;;;;;4955578;28;20519;-82
2021/12/11 16:42:42;;;;;;;20.52;8.88;;;12.70;99.90;;;;;;4958975;28;20594;-82
2021/12/11 16:45:15;;;;;;;23.00;8.60;;;12.60;99.90;;;;;;4959890;28;20217;-82
2021/12/11 16:47:44;;;;;;;20.60;6.38;;;12.70;99.90;;;;;;4957280;28;20043;-80
2021/12/11 16:50:12;;;;;;;;;;;12.60;99.90;;;;;;4960221;28;20071;-80
2021/12/11 16:52:40;;;;;;;18.35;7.03;;;12.60;99.90;;;;;;4960405;28;19989;-81
2021/12/11 16:55:08;;;;;;;19.75;7.38;;;12.60;99.90;;;;;;4957557;28;20393;-81
2021/12/11 16:57:36;;;;;;;19.48;7.63;;;12.60;99.90;;;;;;4959148;28;20058;-81
2021/12/11 17:00:11;;;;;;;25.60;7.78;;;12.60;99.90;;;;;;4955383;28;20051;-80
2021/12/11 17:02:41;;;;;;;22.67;7.07;;;12.60;99.90;;;;;;4950874;28;20519;-82
2021/12/11 17:05:14;;;;;;;17.40;7.00;;;12.60;99.90;;;;;;4971748;28;20414;-82
2021/12/11 17:07:43;;;;;;;24.42;9.10;;;12.60;99.90;;;;;;4960105;28;20495;-80
2021/12/11 17:10:12;;;;;;;;;;;12.60;99.90;;;;;;4961846;28;20299;-80
2021/12/11 17:12:47;;;;;;;19.13;6.07;;;12.50;99.90;;;;;;4949476;28;19926;-81
2021/12/11 17:15:14;;;;;;;26.60;10.50;;;12.50;99.90;;;;;;4957125;28;20066;-81
2021/12/11 17:17:42;;;;;;;23.08;7.65;;;12.50;99.90;;;;;;4965238;28;20061;-80
2021/12/11 17:20:14;;;;;;;19.98;6.38;;;12.50;99.90;;;;;;4964767;28;20050;-81
2021/12/11 17:22:45;;;;;;;17.30;5.97;;;12.50;99.90;;;;;;4955678;28;20051;-82
2021/12/11 17:25:22;;;;;;;27.00;8.80;;;12.50;99.90;;;;;;4961984;28;20072;-83
2021/12/11 17:27:51;;;;;;;45.67;29.17;;;12.50;99.90;;;;;;4952905;28;20062;-80
2021/12/11 17:30:22;;;;;;;23.00;8.45;;;12.50;99.90;;;;;;4965769;28;20503;-83
2021/12/11 17:32:49;;;;;;;24.42;8.40;;;12.50;99.90;;;;;;4963061;28;20053;-81
2021/12/11 17:35:16;;;;;;;32.47;14.20;;;12.50;99.90;;;;;;4955641;28;20051;-82
2021/12/11 17:37:45;;;;;;;49.90;20.10;;;12.50;99.90;;;;;;4967243;28;20046;-83
2021/12/11 17:40:20;;;;;;;26.73;10.02;;;12.50;99.90;;;;;;4956620;28;20530;-83
2021/12/11 17:42:48;;;;;;;30.95;14.18;;;12.60;99.90;;;;;;4953562;28;20047;-82
2021/12/11 17:45:18;;;;;;;28.92;13.85;;;12.50;99.90;;;;;;4946937;28;20039;-82
2021/12/11 17:47:47;;;;;;;28.10;17.63;;;12.50;99.90;;;;;;4955012;28;20066;-82
2021/12/11 17:50:19;;;;;;;23.02;8.52;;;12.50;99.90;;;;;;4961782;28;20059;-81
2021/12/11 17:52:51;;;;;;;25.95;12.65;;;12.50;99.90;;;;;;4965820;28;20050;-81
2021/12/11 17:55:25;;;;;;;32.63;10.90;;;12.50;99.90;;;;;;4948619;28;20051;-82
2021/12/11 17:57:54;;;;;;;31.05;12.52;;;12.60;99.90;;;;;;4954610;28;20054;-81
2021/12/11 18:00:35;;;;;;;26.77;12.52;;;12.60;99.90;;;;;;4951545;28;20057;-82
2021/12/11 18:03:05;;;;;;;33.15;13.35;;;12.60;99.90;;;;;;4944533;28;20158;-82
2021/12/11 18:05:42;;;;;;;48.13;22.23;;;12.60;99.90;;;;;;4930809;28;20250;-83
2021/12/11 18:08:17;;;;;;;42.53;14.07;;;12.50;99.90;;;;;;4950718;28;20074;-83
2021/12/11 18:11:09;;;;;;;26.92;7.60;;;12.50;99.90;;;;;;4964151;28;20113;-83
2021/12/11 18:13:56;;;;;;;35.88;12.15;;;12.50;99.90;;;;;;4950887;28;20046;-84
2021/12/11 18:16:35;;;;;;;76.03;26.88;;;12.50;99.90;;;;;;4948677;28;20051;-83
2021/12/11 18:19:26;;;;;;;44.55;11.50;;;12.50;99.90;;;;;;4955267;28;20125;-82
2021/12/11 18:21:57;;;;;;;46.13;13.32;;;12.50;99.90;;;;;;4856050;29;20259;-82
2021/12/11 18:24:27;;;;;;;34.78;8.65;;;12.60;99.90;;;;;;4857241;29;20069;-82
2021/12/11 18:26:57;;;;;;;37.13;9.00;;;12.50;99.90;;;;;;4848790;29;20056;-84
2021/12/11 18:29:29;;;;;;;38.85;17.38;;;12.50;99.90;;;;;;4826598;29;20053;-81
2021/12/11 18:31:58;;;;;;;60.95;17.88;;;12.50;99.90;;;;;;4845581;29;20053;-80
2021/12/11 18:34:36;;;;;;;41.50;8.35;;;12.50;99.90;;;;;;4864139;29;20134;-80
2021/12/11 18:37:19;;;;;;;33.30;7.65;;;12.50;99.90;;;;;;4855505;29;20049;-79
2021/12/11 18:39:51;;;;;;;46.60;14.43;;;12.50;99.90;;;;;;4842020;29;20212;-80
2021/12/11 18:42:22;;;;;;;47.03;12.50;;;12.50;99.90;;;;;;4865827;29;20048;-81
2021/12/11 18:44:54;;;;;;;36.42;8.07;;;12.50;99.90;;;;;;4866642;29;20053;-81
2021/12/11 18:47:24;;;;;;;41.13;8.70;;;12.50;99.90;;;;;;4849824;29;20061;-80
2021/12/11 18:50:02;;;;;;;43.30;9.57;;;12.50;99.90;;;;;;4867087;29;20084;-81
2021/12/11 18:52:40;;;;;;;56.08;12.77;;;12.50;99.90;;;;;;4867798;29;20044;-81
2021/12/11 18:55:22;;;;;;;45.30;9.98;;;12.50;99.90;;;;;;4864366;29;20137;-83
2021/12/11 18:57:54;;;;;;;41.80;11.65;;;12.40;99.90;;;;;;4858226;29;20045;-82
2021/12/11 19:00:51;;;;;;;43.72;11.13;;;12.40;99.90;;;;;;4962694;28;20496;-82
2021/12/11 19:03:33;;;;;;;;;;;;;;;;;;;;;
2021/12/11 19:06:09;;;;;;;62.17;17.30;;;12.40;99.90;;;;;;4964422;28;20047;-82
2021/12/11 19:08:37;;;;;;;55.03;16.65;;;12.50;99.90;;;;;;4960045;28;20047;-80
2021/12/11 19:11:27;;;;;;;53.22;13.88;;;12.40;99.90;;;;;;4960704;28;20059;-81
2021/12/11 19:13:55;;;;;;;59.53;18.30;;;12.40;99.90;;;;;;4960897;28;20463;-81
2021/12/11 19:16:23;;;;;;;77.27;19.73;;;12.40;99.90;;;;;;4955594;28;20066;-82
2021/12/11 19:18:51;;;;;;;89.55;31.65;;;12.50;99.90;;;;;;4961974;28;20047;-81
2021/12/11 19:21:23;;;;;;;108.88;39.33;;;12.50;99.90;;;;;;4955781;28;20055;-81
2021/12/11 19:23:54;;;;;;;102.18;35.55;;;12.40;99.90;;;;;;4960514;28;20323;-79
2021/12/11 19:26:22;;;;;;;132.98;51.97;;;12.40;99.90;;;;;;4964254;28;20047;-81
2021/12/11 19:28:56;;;;;;;95.47;31.30;;;12.40;99.90;;;;;;4946758;28;20132;-81
2021/12/11 19:31:42;;;;;;;89.78;29.15;;;12.50;99.90;;;;;;4965023;28;20050;-79
2021/12/11 19:34:09;;;;;;;110.10;34.95;;;12.50;99.90;;;;;;4959771;28;20066;-81
2021/12/11 19:36:41;;;;;;;111.75;40.15;;;12.40;99.90;;;;;;4952102;28;20215;-81
2021/12/11 19:39:29;;;;;;;153.63;58.88;;;12.50;99.90;;;;;;4953518;28;20579;-80
2021/12/11 19:41:57;;;;;;;144.57;53.65;;;12.50;99.90;;;;;;4959250;28;20074;-82
2021/12/11 19:44:26;;;;;;;87.80;22.65;;;12.50;99.90;;;;;;4961226;28;20054;-82
2021/12/11 19:46:56;;;;;;;115.40;40.70;;;12.40;99.90;;;;;;4962633;28;20051;-81
2021/12/11 19:49:24;;;;;;;66.47;14.63;;;12.40;99.90;;;;;;4957505;28;20578;-81
2021/12/11 19:51:52;;;;;;;93.47;26.07;;;12.40;99.90;;;;;;4953570;28;20069;-81
2021/12/11 19:54:24;;;;;;;71.60;21.35;;;12.50;99.90;;;;;;4955599;28;20047;-81
2021/12/11 19:56:55;;;;;;;101.10;36.65;;;12.50;99.90;;;;;;4958176;28;20061;-81
2021/12/11 19:59:31;;;;;;;101.57;32.25;;;12.50;99.90;;;;;;4949316;28;20086;-81
2021/12/11 20:02:08;;;;;;;77.07;23.20;;;12.50;99.90;;;;;;4958181;28;20574;-81
2021/12/11 20:04:37;;;;;;;80.45;23.08;;;12.50;99.90;;;;;;4955363;28;20422;-83
2021/12/11 20:07:06;;;;;;;76.97;22.00;;;12.50;99.90;;;;;;4957182;28;20402;-80
2021/12/11 20:09:42;;;;;;;63.53;16.58;;;12.50;99.90;;;;;;4955580;28;20043;-80